This is the latest recevied weather packets stored in our database for station/object I3RKE-10. If no packets are shown the sender has not sent any weather packets the latest 10 day(s).
| Time | Temp. | Humidity | Pressure | Rain* | Wind** | Luminosity | Snow |
|---|---|---|---|---|---|---|---|
| 1777563656 | 25° C | 19% | 1017 hPa | - | - | - | - |
| 1777562755 | 32.78° C | 13% | 1017 hPa | - | - | - | - |
| 1777559155 | 23.89° C | 21% | 1016.8 hPa | - | - | - | - |
| 1777558255 | 25° C | 20% | 1016.9 hPa | - | - | - | - |
| 1777557355 | 22.22° C | 24% | 1016.9 hPa | - | - | - | - |
| 1777555555 | 23.89° C | 24% | 1017.1 hPa | - | - | - | - |
| 1777554655 | 22.78° C | 26% | 1017.3 hPa | - | - | - | - |
| 1777553755 | 22.78° C | 26% | 1017.3 hPa | - | - | - | - |
| 1777551954 | 22.22° C | 28% | 1017.7 hPa | - | - | - | - |
| 1777550154 | 21.11° C | 29% | 1018.1 hPa | - | - | - | - |
| 1777547454 | 19.44° C | 32% | 1018.5 hPa | - | - | - | - |
| 1777545654 | 18.33° C | 33% | 1018.8 hPa | - | - | - | - |
| 1777544754 | 18.33° C | 33% | 1018.8 hPa | - | - | - | - |
| 1777543853 | 17.78° C | 34% | 1018.8 hPa | - | - | - | - |
| 1777542052 | 17.22° C | 34% | 1019.1 hPa | - | - | - | - |
| 1777540252 | 15.56° C | 35% | 1019.2 hPa | - | - | - | - |
| 1777539352 | 16.11° C | 34% | 1019.3 hPa | - | - | - | - |
| 1777537552 | 16.11° C | 35% | 1019.2 hPa | - | - | - | - |
| 1777536652 | 15.56° C | 35% | 1019.1 hPa | - | - | - | - |
| 1777535752 | 15.56° C | 35% | 1019 hPa | - | - | - | - |
| 1777534852 | 16.11° C | 34% | 1019 hPa | - | - | - | - |
| 1777533952 | 17.22° C | 32% | 1018.9 hPa | - | - | - | - |
| 1777533051 | 15.56° C | 34% | 1018.9 hPa | - | - | - | - |
| 1777532151 | 15° C | 35% | 1018.9 hPa | - | - | - | - |
| 1777531251 | 14.44° C | 36% | 1018.7 hPa | - | - | - | - |
* Rain since midnight (hover to see other rain measurements)
** Current wind speed in m/s (hover to see current wind gust speed)